Terminal Aerodrome Forecast
Issued by NWS

Home | Current Version | Previous Version | Text Only | Print | Product List | Glossary On
Versions: 1 2 3 4 5 6 7 8 9 10 11 12 13 14 15 16 17 18 19 20 21 22 23 24 25 26 27 28
431
FTUS42 KJAX 220522
TAFCRG
TAF
KCRG 220522Z 2206/2306 13007KT P6SM SCT060 BKN250
     FM221100 12008KT 4SM BR VCSH BKN025 OVC040
     FM221400 12010KT 5SM -SHRA BR OVC030
     FM222000 10010KT 3SM -SHRA BR OVC030=

USA.gov is the U.S. government's official web portal to all federal, state and local government web resources and services.